createdAt,value
2023-04-04T00:00:44.052Z,101022.94
2023-04-04T00:03:12.075Z,101034.44
2023-04-04T00:05:40.409Z,101036.88
2023-04-04T00:08:07.787Z,101031.25
2023-04-04T00:10:35.571Z,101033.31
2023-04-04T00:13:03.240Z,101032.41
2023-04-04T00:15:30.867Z,101044.06
2023-04-04T00:17:58.740Z,101031.38
2023-04-04T00:20:26.635Z,101040.66
2023-04-04T00:22:53.940Z,101034.72
2023-04-04T00:25:21.134Z,101041.38
2023-04-04T00:27:49.043Z,101028.25
2023-04-04T00:30:16.794Z,101032.47
2023-04-04T00:32:44.193Z,101035.25
2023-04-04T00:35:11.929Z,101032.41
2023-04-04T00:37:39.262Z,101031.78
2023-04-04T00:40:08.809Z,101029.22
2023-04-04T00:42:36.556Z,101027.63
2023-04-04T00:45:05.148Z,101025.75
2023-04-04T00:47:33.622Z,101021.06
2023-04-04T00:50:02.477Z,101024.38
2023-04-04T00:52:30.322Z,101028.84
2023-04-04T00:54:57.790Z,101024.38
2023-04-04T00:57:25.138Z,101036.00
2023-04-04T00:59:52.570Z,101034.44
2023-04-04T01:02:21.729Z,101038.59
2023-04-04T01:04:49.846Z,101037.97
2023-04-04T01:07:19.528Z,101036.63
2023-04-04T01:09:48.586Z,101033.34
2023-04-04T01:12:16.615Z,101038.84
2023-04-04T01:14:43.879Z,101040.31
2023-04-04T01:17:11.212Z,101032.22
2023-04-04T01:20:00.146Z,101029.44
2023-04-04T01:22:31.714Z,101027.38
2023-04-04T01:24:59.752Z,101027.47
2023-04-04T01:27:28.436Z,101031.72
2023-04-04T01:30:05.641Z,101032.56
2023-04-04T01:33:10.779Z,101037.91
2023-04-04T01:36:04.053Z,101035.59
2023-04-04T01:38:48.933Z,101037.09
2023-04-04T01:41:17.993Z,101030.69
2023-04-04T01:43:53.013Z,101025.16
2023-04-04T01:46:24.498Z,101025.91
2023-04-04T01:48:53.054Z,101031.94
2023-04-04T01:51:27.811Z,101032.06
2023-04-04T01:53:56.102Z,101024.88
2023-04-04T01:56:23.799Z,101023.19
2023-04-04T01:58:52.308Z,101026.69
2023-04-04T02:01:20.214Z,101030.41
2023-04-04T02:03:47.718Z,101025.06
2023-04-04T02:06:14.955Z,101022.72
2023-04-04T02:08:43.478Z,101019.19
2023-04-04T02:11:12.808Z,101022.00
2023-04-04T02:13:44.633Z,101013.22
2023-04-04T02:16:15.712Z,101017.78
2023-04-04T02:18:44.130Z,101030.47
2023-04-04T02:21:11.917Z,101025.34
2023-04-04T02:23:39.291Z,101027.09
2023-04-04T02:26:06.687Z,101023.47
2023-04-04T02:28:33.930Z,101029.59
2023-04-04T02:31:02.827Z,101027.78
2023-04-04T02:33:32.051Z,101023.56
2023-04-04T02:36:02.967Z,101023.56
2023-04-04T02:38:30.764Z,101023.47
2023-04-04T02:41:03.946Z,101023.56
2023-04-04T02:43:31.311Z,101028.97
2023-04-04T02:45:59.690Z,101030.00
2023-04-04T02:48:28.887Z,101031.75
2023-04-04T02:51:00.521Z,101023.91
2023-04-04T02:53:28.240Z,101037.44
2023-04-04T02:56:06.600Z,101036.63
2023-04-04T02:58:34.167Z,101041.13
2023-04-04T03:01:02.192Z,101042.84
2023-04-04T03:03:35.264Z,101044.81
2023-04-04T03:06:03.381Z,101044.81
2023-04-04T03:08:30.565Z,101052.94
2023-04-04T03:11:04.590Z,101059.47
2023-04-04T03:13:32.209Z,101057.75
2023-04-04T03:16:06.366Z,101055.84
2023-04-04T03:18:44.972Z,101056.00
2023-04-04T03:21:13.567Z,101057.91
2023-04-04T03:23:42.864Z,101052.56
2023-04-04T03:26:09.864Z,101045.47
2023-04-04T03:28:37.431Z,101055.41
2023-04-04T03:31:06.215Z,101048.31
2023-04-04T03:33:38.148Z,101061.81
2023-04-04T03:36:14.946Z,101057.00
2023-04-04T03:38:41.869Z,101058.72
2023-04-04T03:41:10.805Z,101066.78
2023-04-04T03:43:37.875Z,101061.53
2023-04-04T03:46:06.988Z,101070.69
2023-04-04T03:48:35.026Z,101066.25
2023-04-04T03:51:04.811Z,101080.66
2023-04-04T03:53:32.235Z,101062.81
2023-04-04T03:56:00.146Z,101065.56
2023-04-04T03:58:29.086Z,101066.75
2023-04-04T04:00:56.570Z,101074.78
2023-04-04T04:03:26.507Z,101075.00
2023-04-04T04:05:53.813Z,101077.97
2023-04-04T04:08:22.493Z,101075.47
2023-04-04T04:10:51.890Z,101077.44
2023-04-04T04:13:19.208Z,101075.78
2023-04-04T04:15:46.981Z,101077.13
2023-04-04T04:18:20.500Z,101093.19
2023-04-04T04:20:49.042Z,101088.91
2023-04-04T04:23:16.142Z,101087.41
2023-04-04T04:25:47.936Z,101091.94
2023-04-04T04:28:17.990Z,101096.56
2023-04-04T04:30:46.296Z,101094.06
2023-04-04T04:33:15.530Z,101101.19
2023-04-04T04:35:54.714Z,101103.16
2023-04-04T04:38:23.733Z,101097.81
2023-04-04T04:40:51.628Z,101101.59
2023-04-04T04:43:26.227Z,101100.00
2023-04-04T04:45:53.281Z,101104.56
2023-04-04T04:48:20.353Z,101100.28
2023-04-04T04:50:52.060Z,101112.84
2023-04-04T04:53:29.584Z,101113.97
2023-04-04T04:55:56.639Z,101117.78
2023-04-04T04:58:25.890Z,101121.69
2023-04-04T05:01:00.417Z,101121.06
2023-04-04T05:03:36.194Z,101130.22
2023-04-04T05:06:06.970Z,101123.22
2023-04-04T05:08:35.692Z,101132.16
2023-04-04T05:11:23.203Z,101126.97
2023-04-04T05:13:50.164Z,101134.16
2023-04-04T05:16:18.093Z,101131.59
2023-04-04T05:18:47.931Z,101129.91
2023-04-04T05:21:15.333Z,101125.59
2023-04-04T05:23:45.155Z,101129.97
2023-04-04T05:26:13.574Z,101135.31
2023-04-04T05:28:41.210Z,101127.47
2023-04-04T05:31:08.382Z,101132.00
2023-04-04T05:33:36.900Z,101141.00
2023-04-04T05:36:19.811Z,101132.38
2023-04-04T05:38:52.959Z,101133.41
2023-04-04T05:41:23.962Z,101149.41
2023-04-04T05:43:54.148Z,101142.34
2023-04-04T05:46:25.005Z,101142.44
2023-04-04T05:48:54.484Z,101152.34
2023-04-04T05:51:22.395Z,101148.09
2023-04-04T05:54:15.701Z,101152.56
2023-04-04T05:56:44.224Z,101155.00
2023-04-04T05:59:28.750Z,101153.16
2023-04-04T06:02:01.477Z,101153.97
2023-04-04T06:04:29.821Z,101162.72
2023-04-04T06:06:59.417Z,101163.59
2023-04-04T06:09:27.465Z,101163.53
2023-04-04T06:11:54.834Z,101161.69
2023-04-04T06:14:22.629Z,101167.78
2023-04-04T06:16:50.510Z,101164.97
2023-04-04T06:19:17.946Z,101164.03
2023-04-04T06:21:48.808Z,101170.41
2023-04-04T06:24:16.285Z,101176.50
2023-04-04T06:26:43.875Z,101180.03
2023-04-04T06:29:12.343Z,101180.09
2023-04-04T06:31:41.486Z,101172.84
2023-04-04T06:34:12.998Z,101182.56
2023-04-04T06:36:52.974Z,101185.09
2023-04-04T06:39:22.020Z,101181.56
2023-04-04T06:41:51.367Z,101189.50
2023-04-04T06:44:24.151Z,101187.59
2023-04-04T06:46:51.829Z,101186.69
2023-04-04T06:49:19.367Z,101189.28
2023-04-04T06:51:47.059Z,101189.94
2023-04-04T06:54:14.825Z,101185.34
2023-04-04T06:56:41.888Z,101188.00
2023-04-04T06:59:11.516Z,101191.44
2023-04-04T07:01:38.645Z,101189.84
2023-04-04T07:04:06.491Z,101198.66
2023-04-04T07:06:33.706Z,101191.38
2023-04-04T07:09:00.787Z,101192.25
2023-04-04T07:11:29.239Z,101198.38
2023-04-04T07:13:56.446Z,101192.91
2023-04-04T07:16:23.458Z,101198.28
2023-04-04T07:18:50.799Z,101196.28
2023-04-04T07:21:18.721Z,101195.13
2023-04-04T07:23:45.677Z,101202.78
2023-04-04T07:26:14.018Z,101206.31
2023-04-04T07:28:41.024Z,101201.72
2023-04-04T07:31:08.225Z,101200.56
2023-04-04T07:33:35.487Z,101199.56
2023-04-04T07:36:03.537Z,101201.16
2023-04-04T07:38:31.207Z,101199.81
2023-04-04T07:40:58.198Z,101201.44
2023-04-04T07:43:25.110Z,101201.75
2023-04-04T07:45:55.908Z,101203.03
2023-04-04T07:48:23.153Z,101200.91
2023-04-04T07:50:50.233Z,101205.91
2023-04-04T07:53:18.746Z,101207.38
2023-04-04T07:55:46.208Z,101209.03
2023-04-04T07:58:13.974Z,101193.88
2023-04-04T08:00:41.423Z,101207.00
2023-04-04T08:03:08.908Z,101212.19
2023-04-04T08:05:36.053Z,101200.41
2023-04-04T08:08:03.378Z,101203.56
2023-04-04T08:10:30.769Z,101202.38
2023-04-04T08:12:59.493Z,101200.09
2023-04-04T08:15:27.679Z,101194.44
2023-04-04T08:17:56.206Z,101202.38
2023-04-04T08:20:24.245Z,101202.94
2023-04-04T08:22:51.263Z,101201.19
2023-04-04T08:25:18.550Z,101205.50
2023-04-04T08:27:45.994Z,101191.03
2023-04-04T08:30:14.556Z,101196.31
2023-04-04T08:32:44.253Z,101199.53
2023-04-04T08:35:12.458Z,101192.13
2023-04-04T08:37:39.868Z,101192.91
2023-04-04T08:40:08.002Z,101186.53
2023-04-04T08:42:37.183Z,101195.00
2023-04-04T08:45:05.316Z,101190.34
2023-04-04T08:47:33.844Z,101194.63
2023-04-04T08:50:06.187Z,101189.88
2023-04-04T08:52:35.309Z,101187.66
2023-04-04T08:55:05.754Z,101187.47
2023-04-04T08:57:33.899Z,101195.16
2023-04-04T09:00:06.044Z,101182.38
2023-04-04T09:03:05.658Z,101190.28
2023-04-04T09:05:34.150Z,101186.06
2023-04-04T09:08:01.547Z,101183.78
2023-04-04T09:10:29.916Z,101182.22
2023-04-04T09:13:12.480Z,101179.22
2023-04-04T09:15:47.213Z,101171.88
2023-04-04T09:18:15.346Z,101179.88
2023-04-04T09:20:44.464Z,101179.88
2023-04-04T09:23:18.541Z,101177.84
2023-04-04T09:26:02.542Z,101184.53
2023-04-04T09:28:31.026Z,101181.88
2023-04-04T09:31:03.103Z,101179.50
2023-04-04T09:33:32.381Z,101185.91
2023-04-04T09:36:05.850Z,101176.41
2023-04-04T09:38:36.980Z,101176.50
2023-04-04T09:41:09.819Z,101176.06
2023-04-04T09:43:39.763Z,101178.03
2023-04-04T09:46:07.845Z,101169.47
2023-04-04T09:48:36.314Z,101176.63
2023-04-04T09:51:08.016Z,101181.56
2023-04-04T09:53:39.904Z,101177.38
2023-04-04T09:56:07.810Z,101178.41
2023-04-04T09:58:40.531Z,101174.53
2023-04-04T10:01:14.063Z,101169.91
2023-04-04T10:03:41.157Z,101173.09
2023-04-04T10:06:12.522Z,101176.84
2023-04-04T10:08:41.617Z,101173.16
2023-04-04T10:11:11.350Z,101181.69
2023-04-04T10:13:44.106Z,101179.38
2023-04-04T10:16:12.097Z,101180.91
2023-04-04T10:18:40.695Z,101184.50
2023-04-04T10:23:41.681Z,101181.94
2023-04-04T10:26:08.634Z,101184.91
2023-04-04T10:28:36.848Z,101186.38
2023-04-04T10:31:23.869Z,101183.59
2023-04-04T10:34:18.048Z,101175.09
2023-04-04T10:36:50.696Z,101172.97
2023-04-04T10:39:37.806Z,101173.94
2023-04-04T10:42:07.857Z,101177.28
2023-04-04T10:44:46.129Z,101177.50
2023-04-04T10:47:23.911Z,101157.09
2023-04-04T10:49:52.266Z,101171.75
2023-04-04T10:52:23.614Z,101163.59
2023-04-04T10:54:57.637Z,101168.66
2023-04-04T10:57:26.233Z,101167.34
2023-04-04T11:00:08.504Z,101155.06
2023-04-04T11:03:02.196Z,101153.84
2023-04-04T11:05:51.307Z,101162.53
2023-04-04T11:08:25.016Z,101162.75
2023-04-04T11:10:55.350Z,101156.69
2023-04-04T11:13:39.978Z,101162.16
2023-04-04T11:16:16.599Z,101149.31
2023-04-04T11:18:45.286Z,101146.13
2023-04-04T11:21:23.731Z,101150.13
2023-04-04T11:24:04.721Z,101152.81
2023-04-04T11:26:31.604Z,101152.88
2023-04-04T11:29:01.526Z,101150.38
2023-04-04T11:31:50.918Z,101141.94
2023-04-04T11:34:32.980Z,101143.00
2023-04-04T11:37:16.290Z,101145.84
2023-04-04T11:39:59.020Z,101141.56
2023-04-04T11:42:34.642Z,101132.59
2023-04-04T11:45:05.341Z,101134.41
2023-04-04T11:47:32.585Z,101132.38
2023-04-04T11:50:10.959Z,101128.66
2023-04-04T11:52:41.083Z,101132.34
2023-04-04T11:55:22.833Z,101118.34
2023-04-04T11:57:51.435Z,101120.50
2023-04-04T12:00:44.224Z,101119.34
2023-04-04T12:03:12.912Z,101116.84
2023-04-04T12:05:43.518Z,101121.59
2023-04-04T12:08:12.436Z,101106.41
2023-04-04T12:10:41.260Z,101108.03
2023-04-04T12:13:09.914Z,101100.31
2023-04-04T12:15:38.330Z,101094.25
2023-04-04T12:18:09.357Z,101089.09
2023-04-04T12:20:41.230Z,101087.47
2023-04-04T12:23:08.367Z,101089.06
2023-04-04T12:25:40.161Z,101091.03
2023-04-04T12:28:08.561Z,101092.16
2023-04-04T12:30:36.046Z,101079.25
2023-04-04T12:33:03.354Z,101076.13
2023-04-04T12:35:32.148Z,101082.75
2023-04-04T12:38:07.507Z,101080.38
2023-04-04T12:40:38.414Z,101078.94
2023-04-04T12:43:08.162Z,101067.94
2023-04-04T12:45:43.210Z,101070.00
2023-04-04T12:48:17.878Z,101065.59
2023-04-04T12:50:57.810Z,101071.81
2023-04-04T12:53:30.362Z,101064.72
2023-04-04T12:56:03.421Z,101072.81
2023-04-04T12:58:32.627Z,101059.28
2023-04-04T13:01:03.029Z,101065.69
2023-04-04T13:03:30.245Z,101061.16
2023-04-04T13:05:58.896Z,101051.59
2023-04-04T13:08:26.141Z,101052.56
2023-04-04T13:11:06.963Z,101048.66
2023-04-04T13:13:36.988Z,101056.16
2023-04-04T13:16:12.049Z,101044.94
2023-04-04T13:18:44.342Z,101051.13
2023-04-04T13:21:13.879Z,101050.88
2023-04-04T13:23:41.835Z,101048.88
2023-04-04T13:26:10.812Z,101038.63
2023-04-04T13:28:38.047Z,101040.50
2023-04-04T13:31:08.293Z,101036.25
2023-04-04T13:33:35.764Z,101040.91
2023-04-04T13:36:03.432Z,101036.28
2023-04-04T13:38:31.341Z,101027.75
2023-04-04T13:40:59.478Z,101028.38
2023-04-04T13:43:27.283Z,101033.19
2023-04-04T13:45:55.892Z,101031.69
2023-04-04T13:48:23.391Z,101016.81
2023-04-04T13:50:55.459Z,101029.47
2023-04-04T13:53:22.769Z,101017.38
2023-04-04T13:56:02.181Z,101020.81
2023-04-04T13:58:36.968Z,101013.72
2023-04-04T14:01:04.683Z,101004.53
2023-04-04T14:03:32.496Z,101009.47
2023-04-04T14:08:47.436Z,101004.91
2023-04-04T14:11:16.112Z,101007.59
2023-04-04T14:13:43.147Z,101012.38
2023-04-04T14:16:10.306Z,101003.81
2023-04-04T14:18:38.012Z,100999.41
2023-04-04T14:21:05.775Z,101011.06
2023-04-04T14:23:33.064Z,101005.75
2023-04-04T14:26:00.130Z,101005.75
2023-04-04T14:28:28.231Z,100998.16
2023-04-04T14:30:55.253Z,100996.47
2023-04-04T14:33:22.667Z,100994.13
2023-04-04T14:35:51.182Z,100992.53
2023-04-04T14:38:18.431Z,100993.88
2023-04-04T14:40:45.371Z,100996.81
2023-04-04T14:43:12.362Z,100997.06
2023-04-04T14:45:39.919Z,100984.56
2023-04-04T14:48:07.842Z,100990.44
2023-04-04T14:50:35.213Z,100995.47
2023-04-04T14:53:02.431Z,100990.31
2023-04-04T14:55:29.463Z,100999.53
2023-04-04T14:58:02.533Z,100981.97
2023-04-04T15:00:31.705Z,100977.56
2023-04-04T15:02:59.665Z,100982.22
2023-04-04T15:05:27.401Z,100979.06
2023-04-04T15:07:55.704Z,100983.31
2023-04-04T15:10:23.280Z,100975.97
2023-04-04T15:12:50.362Z,100975.72
2023-04-04T15:15:17.425Z,100975.47
2023-04-04T15:17:45.175Z,100982.47
2023-04-04T15:20:13.475Z,100980.03
2023-04-04T15:22:41.734Z,100982.22
2023-04-04T15:25:09.803Z,100977.56
2023-04-04T15:27:37.220Z,100971.94
2023-04-04T15:30:05.646Z,100967.50
2023-04-04T15:32:32.736Z,100964.09
2023-04-04T15:34:59.804Z,100967.88
2023-04-04T15:37:27.121Z,100977.50
2023-04-04T15:39:54.757Z,100969.66
2023-04-04T15:42:21.888Z,100974.41
2023-04-04T15:44:49.059Z,100974.88
2023-04-04T15:47:17.005Z,100976.09
2023-04-04T15:49:44.603Z,100972.19
2023-04-04T15:52:12.378Z,100976.19
2023-04-04T15:54:39.419Z,100971.78
2023-04-04T15:57:06.664Z,100967.41
2023-04-04T15:59:34.433Z,100980.34
2023-04-04T16:02:05.506Z,100976.03
2023-04-04T16:04:35.949Z,100969.81
2023-04-04T16:07:02.983Z,100971.75
2023-04-04T16:09:30.145Z,100972.09
2023-04-04T16:11:57.607Z,100981.41
2023-04-04T16:14:25.004Z,100977.09
2023-04-04T16:16:52.089Z,100970.72
2023-04-04T16:19:19.325Z,100977.94
2023-04-04T16:21:46.981Z,100985.41
2023-04-04T16:24:15.264Z,100981.22
2023-04-04T16:26:47.346Z,100978.63
2023-04-04T16:29:18.662Z,100986.09
2023-04-04T16:31:46.080Z,100978.88
2023-04-04T16:34:13.225Z,100983.94
2023-04-04T16:36:40.506Z,100977.56
2023-04-04T16:39:07.796Z,100978.31
2023-04-04T16:41:34.887Z,100981.09
2023-04-04T16:44:02.023Z,100984.16
2023-04-04T16:46:29.194Z,100984.94
2023-04-04T16:48:56.366Z,100981.84
2023-04-04T16:51:23.667Z,100990.41
2023-04-04T16:53:51.002Z,100995.25
2023-04-04T16:56:18.105Z,101001.69
2023-04-04T16:58:45.881Z,100992.25
2023-04-04T17:01:15.286Z,100990.03
2023-04-04T17:03:42.543Z,100991.16
2023-04-04T17:06:09.939Z,100997.66
2023-04-04T17:08:37.127Z,100994.44
2023-04-04T17:11:04.228Z,100991.53
2023-04-04T17:13:31.526Z,100998.00
2023-04-04T17:15:58.606Z,100996.59
2023-04-04T17:18:25.672Z,101000.72
2023-04-04T17:20:52.826Z,100997.50
2023-04-04T17:23:19.765Z,100999.56
2023-04-04T17:25:46.784Z,101002.56
2023-04-04T17:28:13.899Z,101007.41
2023-04-04T17:30:42.152Z,101006.84
2023-04-04T17:33:09.233Z,101014.50
2023-04-04T17:35:36.946Z,101013.00
2023-04-04T17:38:04.120Z,101017.09
2023-04-04T17:40:31.652Z,101016.63
2023-04-04T17:42:59.184Z,101011.50
2023-04-04T17:45:27.773Z,101014.59
2023-04-04T17:47:55.356Z,101016.72
2023-04-04T17:50:24.741Z,101017.91
2023-04-04T17:52:51.787Z,101020.88
2023-04-04T17:55:18.959Z,101023.97
2023-04-04T17:57:46.200Z,101019.13
2023-04-04T18:00:15.621Z,101025.75
2023-04-04T18:02:43.860Z,101030.66
2023-04-04T18:05:12.888Z,101043.75
2023-04-04T18:07:40.916Z,101042.03
2023-04-04T18:10:09.127Z,101041.28
2023-04-04T18:12:36.428Z,101047.69
2023-04-04T18:15:04.435Z,101058.75
2023-04-04T18:17:33.331Z,101058.09
2023-04-04T18:20:03.758Z,101054.84
2023-04-04T18:22:31.589Z,101059.53
2023-04-04T18:24:59.042Z,101067.91
2023-04-04T18:27:26.323Z,101066.34
2023-04-04T18:29:53.213Z,101068.50
2023-04-04T18:32:21.619Z,101073.19
2023-04-04T18:34:48.642Z,101083.34
2023-04-04T18:37:16.289Z,101080.97
2023-04-04T18:39:43.568Z,101086.59
2023-04-04T18:42:11.710Z,101088.72
2023-04-04T18:44:38.998Z,101087.19
2023-04-04T18:47:08.795Z,101091.03
2023-04-04T18:49:36.365Z,101093.88
2023-04-04T18:52:03.916Z,101101.38
2023-04-04T18:54:31.456Z,101105.19
2023-04-04T18:56:58.633Z,101106.25
2023-04-04T18:59:26.031Z,101111.88
2023-04-04T19:01:54.200Z,101105.19
2023-04-04T19:04:22.376Z,101109.00
2023-04-04T19:06:51.706Z,101121.56
2023-04-04T19:09:20.659Z,101122.41
2023-04-04T19:11:49.209Z,101124.47
2023-04-04T19:14:18.628Z,101128.13
2023-04-04T19:16:46.183Z,101132.78
2023-04-04T19:19:13.290Z,101132.00
2023-04-04T19:21:40.343Z,101130.31
2023-04-04T19:24:08.230Z,101134.97
2023-04-04T19:26:35.532Z,101138.59
2023-04-04T19:29:02.556Z,101138.88
2023-04-04T19:31:32.955Z,101146.25
2023-04-04T19:34:03.345Z,101151.78
2023-04-04T19:36:36.689Z,101160.00
2023-04-04T19:39:05.185Z,101151.97
2023-04-04T19:41:37.664Z,101157.38
2023-04-04T19:44:08.912Z,101160.53
2023-04-04T19:46:36.251Z,101162.53
2023-04-04T19:49:12.092Z,101168.00
2023-04-04T19:51:57.627Z,101168.91
2023-04-04T19:54:28.360Z,101170.66
2023-04-04T19:57:07.410Z,101175.22
2023-04-04T20:00:03.391Z,101177.31
2023-04-04T20:02:35.064Z,101177.47
2023-04-04T20:05:28.541Z,101184.66
2023-04-04T20:07:55.864Z,101185.69
2023-04-04T20:10:41.917Z,101191.31
2023-04-04T20:13:09.991Z,101188.63
2023-04-04T20:15:42.985Z,101203.06
2023-04-04T20:18:10.200Z,101193.47
2023-04-04T20:20:56.937Z,101198.91
2023-04-04T20:23:26.158Z,101204.47
2023-04-04T20:25:54.514Z,101204.63
2023-04-04T20:28:26.799Z,101202.19
2023-04-04T20:30:54.917Z,101211.19
2023-04-04T20:33:40.890Z,101212.22
2023-04-04T20:36:10.731Z,101221.38
2023-04-04T20:38:40.776Z,101228.59
2023-04-04T20:41:17.329Z,101223.53
2023-04-04T20:43:51.623Z,101235.41
2023-04-04T20:46:24.844Z,101239.13
2023-04-04T20:48:56.905Z,101241.03
2023-04-04T20:51:31.052Z,101238.59
2023-04-04T20:54:01.745Z,101244.09
2023-04-04T20:56:46.536Z,101245.13
2023-04-04T20:59:33.193Z,101251.69
2023-04-04T21:02:12.984Z,101246.34
2023-04-04T21:04:41.540Z,101259.78
2023-04-04T21:07:08.687Z,101255.50
2023-04-04T21:09:36.465Z,101252.88
2023-04-04T21:12:04.999Z,101262.78
2023-04-04T21:14:36.699Z,101268.28
2023-04-04T21:17:07.182Z,101270.25
2023-04-04T21:19:34.252Z,101268.66
2023-04-04T21:22:01.388Z,101268.72
2023-04-04T21:24:35.608Z,101272.47
2023-04-04T21:27:04.746Z,101272.09
2023-04-04T21:29:31.812Z,101281.81
2023-04-04T21:32:00.058Z,101284.59
2023-04-04T21:34:28.185Z,101289.22
2023-04-04T21:37:00.664Z,101282.28
2023-04-04T21:39:29.949Z,101295.75
2023-04-04T21:42:06.005Z,101288.75
2023-04-04T21:44:35.306Z,101287.94
2023-04-04T21:47:02.402Z,101291.66
2023-04-04T21:49:29.358Z,101290.00
2023-04-04T21:51:56.299Z,101290.97
2023-04-04T21:54:23.797Z,101295.50
2023-04-04T21:56:50.839Z,101298.34
2023-04-04T21:59:18.093Z,101301.97
2023-04-04T22:01:45.461Z,101302.88
2023-04-04T22:04:13.563Z,101309.28
2023-04-04T22:06:40.816Z,101304.84
2023-04-04T22:09:07.855Z,101305.78
2023-04-04T22:11:38.885Z,101308.53
2023-04-04T22:14:07.485Z,101313.97
2023-04-04T22:16:42.977Z,101304.38
2023-04-04T22:19:11.577Z,101318.66
2023-04-04T22:21:39.392Z,101317.94
2023-04-04T22:24:07.236Z,101316.31
2023-04-04T22:26:34.399Z,101310.16
2023-04-04T22:29:05.389Z,101318.25
2023-04-04T22:31:37.720Z,101314.81
2023-04-04T22:34:06.467Z,101310.41
2023-04-04T22:36:34.567Z,101310.47
2023-04-04T22:39:02.901Z,101304.41
2023-04-04T22:41:30.294Z,101302.00
2023-04-04T22:43:58.126Z,101308.34
2023-04-04T22:46:26.703Z,101302.50
2023-04-04T22:49:05.344Z,101308.91
2023-04-04T22:51:43.151Z,101310.94
2023-04-04T22:54:15.602Z,101314.69
2023-04-04T22:56:43.144Z,101319.31
2023-04-04T22:59:10.499Z,101314.13
2023-04-04T23:01:38.168Z,101319.69
2023-04-04T23:04:05.979Z,101318.88
2023-04-04T23:06:33.102Z,101324.38
2023-04-04T23:09:01.359Z,101326.47
2023-04-04T23:11:29.089Z,101333.75
2023-04-04T23:13:57.095Z,101336.25
2023-04-04T23:16:26.486Z,101335.16
2023-04-04T23:18:53.685Z,101333.41
2023-04-04T23:21:22.093Z,101335.31
2023-04-04T23:23:49.299Z,101336.31
2023-04-04T23:26:16.304Z,101334.47
2023-04-04T23:28:43.278Z,101333.47
2023-04-04T23:31:10.880Z,101337.84
2023-04-04T23:33:38.126Z,101334.31
2023-04-04T23:36:05.937Z,101336.06
2023-04-04T23:38:33.041Z,101340.66
2023-04-04T23:40:59.963Z,101338.34
2023-04-04T23:43:26.989Z,101343.94
2023-04-04T23:45:54.251Z,101339.81
2023-04-04T23:48:21.485Z,101340.22
2023-04-04T23:50:50.125Z,101342.47
2023-04-04T23:53:17.270Z,101348.00
2023-04-04T23:55:44.257Z,101343.25
2023-04-04T23:58:11.670Z,101346.78
